Time;durP1;ratioP1;P1;durP2;ratioP2;P2;SDS_P1;SDS_P2;PMS_P1;PMS_P2;Temp;Humidity;BMP_temperature;BMP_pressure;BME280_temperature;BME280_humidity;BME280_pressure;Samples;Min_cycle;Max_cycle;Signal;HPM_P1;HPM_P2
2023/12/06 04:58:08;;;;;;;;;;;;;;;;;;5172529;23;19926;-71
2023/12/06 05:00:36;;;;;;;;;;;;;;;;;;4995804;28;19925;-70
2023/12/06 05:03:03;;;;;;;;;;;;;;;;;;4995630;28;20383;-70
2023/12/06 05:05:30;;;;;;;;;;;;;;;;;;4995607;28;19930;-69
2023/12/06 05:07:57;;;;;;;;;;;;;;;;;;4995524;28;19929;-70
2023/12/06 05:10:24;;;;;;;;;;;;;;;;;;4995813;28;19948;-72
2023/12/06 05:12:50;;;;;;;;;;;;;;;;;;4995707;28;19925;-72
2023/12/06 05:15:17;;;;;;;;;;;;;;;;;;4995073;28;20272;-72
2023/12/06 05:17:44;;;;;;;;;;;;;;;;;;4995214;28;19933;-72
2023/12/06 05:20:11;;;;;;;;;;;;;;;;;;4995398;28;19930;-72
2023/12/06 05:22:38;;;;;;;;;;;;;;;;;;4995351;28;19933;-72
2023/12/06 05:25:06;;;;;;;;;;;;;;;;;;4995598;28;19926;-72
2023/12/06 05:27:33;;;;;;;;;;;;;;;;;;4994841;28;19925;-72
2023/12/06 05:30:00;;;;;;;;;;;;;;;;;;4995209;28;20000;-72
2023/12/06 05:32:27;;;;;;;;;;;;;;;;;;4995678;28;19937;-72
2023/12/06 05:34:53;;;;;;;;;;;;;;;;;;4995072;28;19933;-71
2023/12/06 05:37:21;;;;;;;;;;;;;;;;;;4995072;28;19926;-72
2023/12/06 05:39:48;;;;;;;;;;;;;;;;;;4994153;28;19930;-71
2023/12/06 05:42:16;;;;;;;;;;;;;;;;;;4994964;28;19933;-70
2023/12/06 05:44:43;;;;;;;;;;;;;;;;;;4994940;28;19926;-71
2023/12/06 05:47:10;;;;;;;;;;;;;;;;;;4994572;28;20284;-72
2023/12/06 05:49:37;;;;;;;;;;;;;;;;;;4995146;28;19953;-71
2023/12/06 05:52:04;;;;;;;;;;;;;;;;;;4994952;28;19926;-70
2023/12/06 05:54:31;;;;;;;;;;;;;;;;;;4994874;28;19925;-72
2023/12/06 05:56:58;;;;;;;;;;;;;;;;;;4994802;28;19933;-72
2023/12/06 05:59:25;;;;;;;;;;;;;;;;;;4994432;28;19934;-73
2023/12/06 06:01:52;;;;;;;;;;;;;;;;;;4994890;28;19934;-70
2023/12/06 06:04:19;;;;;;;;;;;;;;;;;;4994717;28;19933;-70
2023/12/06 06:06:46;;;;;;;;;;;;;;;;;;4994565;28;19925;-70
2023/12/06 06:09:13;;;;;;;;;;;;;;;;;;4994641;28;19932;-70
2023/12/06 06:11:40;;;;;;;;;;;;;;;;;;4994576;28;19933;-70
2023/12/06 06:14:07;;;;;;;;;;;;;;;;;;4994498;28;20387;-70
2023/12/06 06:16:34;;;;;;;;;;;;;;;;;;4994464;28;19925;-70
2023/12/06 06:19:01;;;;;;;;;;;;;;;;;;4994547;28;19932;-70
2023/12/06 06:21:27;;;;;;;;;;;;;;;;;;4994556;28;19934;-70
2023/12/06 06:23:54;;;;;;;;;;;;;;;;;;4994689;28;19926;-70
2023/12/06 06:26:21;;;;;;;;;;;;;;;;;;4994399;28;19949;-70
2023/12/06 06:28:48;;;;;;;;;;;;;;;;;;4994348;28;19933;-70
2023/12/06 11:42:52;;;;;;;;;;;;;;;;;;5397197;23;20012;-69
2023/12/06 11:45:19;;;;;;;;;;;;;;;;;;4998486;28;19932;-69
2023/12/06 11:47:46;;;;;;;;;;;;;;;;;;4998479;28;20013;-68
2023/12/06 11:50:12;;;;;;;;;;;;;;;;;;4998303;28;19925;-68
2023/12/06 11:52:39;;;;;;;;;;;;;;;;;;4998655;28;19937;-68
2023/12/06 11:55:06;;;;;;;;;;;;;;;;;;4997652;28;19930;-69
2023/12/06 11:57:33;;;;;;;;;;;;;;;;;;5037162;23;20402;-72
2023/12/06 12:00:00;;;;;;;;;;;;;;;;;;4978070;28;19930;-74
2023/12/06 12:02:27;;;;;;;;;;;;;;;;;;4978171;28;19926;-73
2023/12/06 12:04:54;;;;;;;;;;;;;;;;;;4978529;28;19937;-74
2023/12/06 12:07:21;;;;;;;;;;;;;;;;;;4978132;28;20024;-73
2023/12/06 12:09:48;;;;;;;;;;;;;;;;;;4978529;28;19927;-74
2023/12/06 12:12:15;;;;;;;;;;;;;;;;;;4978298;28;19926;-73
2023/12/06 12:14:42;;;;;;;;;;;;;;;;;;4977804;28;19926;-73
2023/12/06 12:17:09;;;;;;;;;;;;;;;;;;4978075;28;19926;-74
2023/12/06 12:19:36;;;;;;;;;;;;;;;;;;4977602;28;20375;-74
2023/12/06 12:22:03;;;;;;;;;;;;;;;;;;4978049;28;19926;-74
2023/12/06 12:24:30;;;;;;;;;;;;;;;;;;4976930;28;19926;-74
2023/12/06 12:26:57;;;;;;;;;;;;;;;;;;4976588;28;20406;-74
2023/12/06 12:29:23;;;;;;;;;;;;;;;;;;4976866;28;19930;-74
2023/12/06 12:31:50;;;;;;;;;;;;;;;;;;4976817;28;19933;-74
2023/12/06 12:34:18;;;;;;;;;;;;;;;;;;4976721;28;19933;-75
2023/12/06 12:36:45;;;;;;;;;;;;;;;;;;4976879;28;20016;-75
2023/12/06 12:39:13;;;;;;;;;;;;;;;;;;4976905;28;19926;-74
2023/12/06 12:41:40;;;;;;;;;;;;;;;;;;4976336;28;20388;-72
2023/12/06 12:44:08;;;;;;;;;;;;;;;;;;4976697;28;19933;-72
2023/12/06 12:46:36;;;;;;;;;;;;;;;;;;4976407;28;20398;-72
2023/12/06 12:49:03;;;;;;;;;;;;;;;;;;4976032;28;19973;-72
2023/12/06 12:51:30;;;;;;;;;;;;;;;;;;4976311;28;20426;-72
2023/12/06 12:53:57;;;;;;;;;;;;;;;;;;4976435;28;19926;-72
2023/12/06 12:56:24;;;;;;;;;;;;;;;;;;4976392;28;19977;-72
2023/12/06 12:58:51;;;;;;;;;;;;;;;;;;4976156;28;19949;-73
2023/12/06 13:01:18;;;;;;;;;;;;;;;;;;4976444;28;19934;-73
2023/12/06 13:03:45;;;;;;;;;;;;;;;;;;4976122;28;20380;-73
2023/12/06 13:06:12;;;;;;;;;;;;;;;;;;4976265;28;19926;-73
2023/12/06 13:08:39;;;;;;;;;;;;;;;;;;4976203;28;20395;-73
2023/12/06 13:11:06;;;;;;;;;;;;;;;;;;4976335;28;19933;-73
2023/12/06 13:13:32;;;;;;;;;;;;;;;;;;4976166;28;19926;-73
2023/12/06 13:16:00;;;;;;;;;;;;;;;;;;4975964;28;20280;-73
2023/12/06 13:18:29;;;;;;;;;;;;;;;;;;4976073;28;19926;-73
2023/12/06 13:20:56;;;;;;;;;;;;;;;;;;4976064;28;19981;-73
2023/12/06 13:23:23;;;;;;;;;;;;;;;;;;4976044;28;19926;-73
2023/12/06 13:25:50;;;;;;;;;;;;;;;;;;4976128;28;19926;-71
2023/12/06 13:28:17;;;;;;;;;;;;;;;;;;4975607;28;19926;-72
2023/12/06 13:30:45;;;;;;;;;;;;;;;;;;4975803;28;19926;-72
2023/12/06 13:33:12;;;;;;;;;;;;;;;;;;4975735;28;19973;-72
2023/12/06 13:35:39;;;;;;;;;;;;;;;;;;4976164;28;19934;-71
2023/12/06 13:38:05;;;;;;;;;;;;;;;;;;4975691;28;19926;-71
2023/12/06 13:40:32;;;;;;;;;;;;;;;;;;4975869;28;19926;-71
2023/12/06 13:42:59;;;;;;;;;;;;;;;;;;4975244;28;20415;-71
2023/12/06 13:45:26;;;;;;;;;;;;;;;;;;4975534;28;19934;-72
2023/12/06 13:47:53;;;;;;;;;;;;;;;;;;4975799;28;19926;-72
2023/12/06 13:50:21;;;;;;;;;;;;;;;;;;4976522;28;19933;-72
2023/12/06 13:52:48;;;;;;;;;;;;;;;;;;4977869;28;19926;-73
2023/12/06 13:55:15;;;;;;;;;;;;;;;;;;4976987;28;20346;-73
2023/12/06 13:57:44;;;;;;;;;;;;;;;;;;4975258;28;19941;-72
2023/12/06 14:00:11;;;;;;;;;;;;;;;;;;4974986;28;19930;-72
2023/12/06 14:02:38;;;;;;;;;;;;;;;;;;4975607;28;19933;-71
2023/12/06 14:05:05;;;;;;;;;;;;;;;;;;4975274;28;19930;-71
2023/12/06 14:07:32;;;;;;;;;;;;;;;;;;4975463;28;20290;-72
2023/12/06 14:09:59;;;;;;;;;;;;;;;;;;4975366;28;19926;-72
2023/12/06 14:12:26;;;;;;;;;;;;;;;;;;4976227;28;19926;-72
2023/12/06 14:14:53;;;;;;;;;;;;;;;;;;4974942;28;20405;-73
2023/12/06 14:17:20;;;;;;;;;;;;;;;;;;4975495;28;19930;-73
2023/12/06 14:19:47;;;;;;;;;;;;;;;;;;4975248;28;19926;-71
2023/12/06 14:22:14;;;;;;;;;;;;;;;;;;4975529;28;19932;-71
2023/12/06 14:24:41;;;;;;;;;;;;;;;;;;4975338;28;19926;-71
2023/12/06 14:27:08;;;;;;;;;;;;;;;;;;4975715;28;19926;-70
2023/12/06 14:29:35;;;;;;;;;;;;;;;;;;4975252;28;19953;-70
2023/12/06 14:32:02;;;;;;;;;;;;;;;;;;4975181;28;19930;-70
2023/12/06 14:34:29;;;;;;;;;;;;;;;;;;4974602;28;20291;-70
2023/12/06 14:36:56;;;;;;;;;;;;;;;;;;4974894;28;20016;-70
2023/12/06 14:39:23;;;;;;;;;;;;;;;;;;4974783;28;19933;-70
2023/12/06 14:41:52;;;;;;;;;;;;;;;;;;4975130;28;19926;-70
2023/12/06 14:44:19;;;;;;;;;;;;;;;;;;4974521;28;19932;-70
2023/12/06 14:46:46;;;;;;;;;;;;;;;;;;4974488;28;19926;-70
2023/12/06 14:49:13;;;;;;;;;;;;;;;;;;4975747;28;19935;-70
2023/12/06 14:51:39;;;;;;;;;;;;;;;;;;4974963;28;19933;-70
2023/12/06 14:54:07;;;;;;;;;;;;;;;;;;4974672;28;20033;-70
2023/12/06 14:56:34;;;;;;;;;;;;;;;;;;4974754;28;19926;-70
2023/12/06 14:59:02;;;;;;;;;;;;;;;;;;4974317;28;19953;-70
2023/12/06 15:01:29;;;;;;;;;;;;;;;;;;4974840;28;19926;-71
2023/12/06 15:03:56;;;;;;;;;;;;;;;;;;4974427;28;20388;-71
2023/12/06 15:06:23;;;;;;;;;;;;;;;;;;4974728;28;19934;-71
2023/12/06 15:08:50;;;;;;;;;;;;;;;;;;4974364;28;19933;-71
2023/12/06 15:11:16;;;;;;;;;;;;;;;;;;4975626;28;19933;-71
2023/12/06 15:13:44;;;;;;;;;;;;;;;;;;4977943;28;19926;-71
2023/12/06 15:16:11;;;;;;;;;;;;;;;;;;4978201;28;19973;-71
2023/12/06 15:18:38;;;;;;;;;;;;;;;;;;4978152;28;19926;-71
2023/12/06 15:21:05;;;;;;;;;;;;;;;;;;4978056;28;19934;-72
2023/12/06 15:23:32;;;;;;;;;;;;;;;;;;4978595;28;19933;-72
2023/12/06 15:25:58;;;;;;;;;;;;;;;;;;4978020;28;19926;-72
2023/12/06 15:28:25;;;;;;;;;;;;;;;;;;4977873;28;19930;-72
2023/12/06 15:30:52;;;;;;;;;;;;;;;;;;4978002;28;19977;-73
2023/12/06 15:33:19;;;;;;;;;;;;;;;;;;4978048;28;19933;-71
2023/12/06 15:35:46;;;;;;;;;;;;;;;;;;4978017;28;19925;-71
2023/12/06 15:38:13;;;;;;;;;;;;;;;;;;4977989;28;19933;-71
2023/12/06 15:40:40;;;;;;;;;;;;;;;;;;4977619;28;19930;-71
2023/12/06 15:43:07;;;;;;;;;;;;;;;;;;4977827;28;19933;-71
2023/12/06 15:45:34;;;;;;;;;;;;;;;;;;4977784;28;19926;-71
2023/12/06 15:48:05;;;;;;;;;;;;;;;;;;4977633;28;19930;-71
2023/12/06 15:50:32;;;;;;;;;;;;;;;;;;4977576;28;20113;-71
2023/12/06 15:52:59;;;;;;;;;;;;;;;;;;4977327;28;19961;-71
2023/12/06 15:55:26;;;;;;;;;;;;;;;;;;4977156;28;20024;-70
2023/12/06 15:57:53;;;;;;;;;;;;;;;;;;4977253;28;19934;-71
2023/12/06 16:00:20;;;;;;;;;;;;;;;;;;4977604;28;19926;-71
2023/12/06 16:02:48;;;;;;;;;;;;;;;;;;4977174;28;20405;-71
2023/12/06 16:05:14;;;;;;;;;;;;;;;;;;4977602;28;19973;-71
2023/12/06 16:07:41;;;;;;;;;;;;;;;;;;4977325;28;19934;-71
2023/12/06 16:10:09;;;;;;;;;;;;;;;;;;4977336;28;19926;-71
2023/12/06 16:12:36;;;;;;;;;;;;;;;;;;4977274;28;19930;-71
2023/12/06 16:15:04;;;;;;;;;;;;;;;;;;4977748;28;19926;-70
2023/12/06 16:17:35;;;;;;;;;;;;;;;;;;4977295;28;19926;-70
2023/12/06 16:20:02;;;;;;;;;;;;;;;;;;4977308;28;19932;-70
2023/12/06 16:22:28;;;;;;;;;;;;;;;;;;4976531;28;19930;-69
2023/12/06 16:24:55;;;;;;;;;;;;;;;;;;4976944;28;19973;-69
2023/12/06 16:27:22;;;;;;;;;;;;;;;;;;4976692;28;20410;-69
2023/12/06 16:29:49;;;;;;;;;;;;;;;;;;4977022;28;19933;-71
2023/12/06 16:32:16;;;;;;;;;;;;;;;;;;4977099;28;19930;-70
2023/12/06 16:34:43;;;;;;;;;;;;;;;;;;4976955;28;20287;-71
2023/12/06 16:37:10;;;;;;;;;;;;;;;;;;4976978;28;19927;-70
2023/12/06 16:39:37;;;;;;;;;;;;;;;;;;4976786;28;19933;-71
2023/12/06 16:42:03;;;;;;;;;;;;;;;;;;4976846;28;20353;-71
2023/12/06 16:44:30;;;;;;;;;;;;;;;;;;4976685;28;19933;-70
2023/12/06 16:46:57;;;;;;;;;;;;;;;;;;4976588;28;19930;-70
2023/12/06 16:49:28;;;;;;;;;;;;;;;;;;4976767;28;19960;-70
2023/12/06 16:51:55;;;;;;;;;;;;;;;;;;4976705;28;19926;-69
2023/12/06 16:54:22;;;;;;;;;;;;;;;;;;4976619;28;19930;-70
2023/12/06 16:56:49;;;;;;;;;;;;;;;;;;4976667;28;19927;-70
2023/12/06 16:59:16;;;;;;;;;;;;;;;;;;4976506;28;19930;-71
2023/12/06 17:01:43;;;;;;;;;;;;;;;;;;4976550;28;19933;-72
2023/12/06 17:04:10;;;;;;;;;;;;;;;;;;4976548;28;19927;-73
2023/12/06 17:06:36;;;;;;;;;;;;;;;;;;4976436;28;19930;-73
2023/12/06 17:09:03;;;;;;;;;;;;;;;;;;4976555;28;20380;-72
2023/12/06 17:11:30;;;;;;;;;;;;;;;;;;4976456;28;19932;-72
2023/12/06 17:13:58;;;;;;;;;;;;;;;;;;4975899;28;20384;-72
2023/12/06 17:16:26;;;;;;;;;;;;;;;;;;4975582;28;20446;-72
2023/12/06 17:18:53;;;;;;;;;;;;;;;;;;4975720;28;19976;-71
2023/12/06 17:21:20;;;;;;;;;;;;;;;;;;4975771;28;19926;-71
2023/12/06 17:23:49;;;;;;;;;;;;;;;;;;4975704;28;19926;-71
2023/12/06 17:26:15;;;;;;;;;;;;;;;;;;4975445;28;19953;-71
2023/12/06 17:28:42;;;;;;;;;;;;;;;;;;4975833;28;19926;-69
2023/12/06 17:31:09;;;;;;;;;;;;;;;;;;4975153;28;20422;-69
2023/12/06 17:33:36;;;;;;;;;;;;;;;;;;4975428;28;19934;-69
2023/12/06 17:36:03;;;;;;;;;;;;;;;;;;4975246;28;19926;-69
2023/12/06 17:38:30;;;;;;;;;;;;;;;;;;4975365;28;19932;-69
2023/12/06 17:40:57;;;;;;;;;;;;;;;;;;4975481;28;20303;-69
2023/12/06 17:43:24;;;;;;;;;;;;;;;;;;4975323;28;19926;-70
2023/12/06 17:45:52;;;;;;;;;;;;;;;;;;4974848;28;22611;-69
2023/12/06 17:48:19;;;;;;;;;;;;;;;;;;4975508;28;19926;-69
2023/12/06 17:50:46;;;;;;;;;;;;;;;;;;4975694;28;19937;-68
2023/12/06 17:53:13;;;;;;;;;;;;;;;;;;4975509;28;20392;-73
2023/12/06 17:55:40;;;;;;;;;;;;;;;;;;4976098;28;19926;-73
2023/12/06 17:58:07;;;;;;;;;;;;;;;;;;4976621;28;20376;-71
2023/12/06 18:00:34;;;;;;;;;;;;;;;;;;4975812;28;19933;-71
2023/12/06 18:03:01;;;;;;;;;;;;;;;;;;4975648;28;19937;-70
2023/12/06 18:05:28;;;;;;;;;;;;;;;;;;4975823;28;19926;-72
2023/12/06 18:07:54;;;;;;;;;;;;;;;;;;4975783;28;19926;-71
2023/12/06 18:10:26;;;;;;;;;;;;;;;;;;4976477;28;19926;-74
2023/12/06 18:12:53;;;;;;;;;;;;;;;;;;4976147;28;19933;-73
2023/12/06 18:15:20;;;;;;;;;;;;;;;;;;4976202;28;19996;-74
2023/12/06 18:17:47;;;;;;;;;;;;;;;;;;4976317;28;19926;-73
2023/12/06 18:20:15;;;;;;;;;;;;;;;;;;4975595;28;19926;-73
2023/12/06 18:22:42;;;;;;;;;;;;;;;;;;4975939;28;19926;-75
2023/12/06 18:25:09;;;;;;;;;;;;;;;;;;4975524;28;20450;-72
2023/12/06 18:27:36;;;;;;;;;;;;;;;;;;4975687;28;19992;-74
2023/12/06 18:30:03;;;;;;;;;;;;;;;;;;4976333;28;19933;-74
2023/12/06 18:32:31;;;;;;;;;;;;;;;;;;4975449;28;19927;-73
2023/12/06 18:34:58;;;;;;;;;;;;;;;;;;4976080;28;19927;-73
2023/12/06 18:37:25;;;;;;;;;;;;;;;;;;4975648;28;19952;-74
2023/12/06 18:39:52;;;;;;;;;;;;;;;;;;4975461;28;19926;-75
2023/12/06 18:42:19;;;;;;;;;;;;;;;;;;4974743;28;20388;-75
2023/12/06 18:44:46;;;;;;;;;;;;;;;;;;4976333;28;19926;-74
2023/12/06 18:47:13;;;;;;;;;;;;;;;;;;4979219;28;19926;-74
2023/12/06 18:49:40;;;;;;;;;;;;;;;;;;4979426;28;19926;-73
2023/12/06 18:52:07;;;;;;;;;;;;;;;;;;4979746;28;19937;-74
2023/12/06 18:54:33;;;;;;;;;;;;;;;;;;4980137;28;19926;-74
2023/12/06 18:57:00;;;;;;;;;;;;;;;;;;4979556;28;19939;-74
2023/12/06 18:59:27;;;;;;;;;;;;;;;;;;4978749;28;20299;-75
2023/12/06 19:01:54;;;;;;;;;;;;;;;;;;4979212;28;19933;-74
2023/12/06 19:04:21;;;;;;;;;;;;;;;;;;4979064;28;19926;-75
2023/12/06 19:06:49;;;;;;;;;;;;;;;;;;4978798;28;19926;-76
2023/12/06 19:09:16;;;;;;;;;;;;;;;;;;4978952;28;19927;-75
2023/12/06 19:11:42;;;;;;;;;;;;;;;;;;4979031;28;19949;-74
2023/12/06 19:14:09;;;;;;;;;;;;;;;;;;4979290;28;19926;-74
2023/12/06 19:16:36;;;;;;;;;;;;;;;;;;4978579;28;19937;-74
2023/12/06 19:19:03;;;;;;;;;;;;;;;;;;4978834;28;20399;-75
2023/12/06 19:21:30;;;;;;;;;;;;;;;;;;4978864;28;19933;-76
2023/12/06 19:23:57;;;;;;;;;;;;;;;;;;4978591;28;19937;-75
2023/12/06 19:26:24;;;;;;;;;;;;;;;;;;4978637;28;19926;-73
2023/12/06 19:28:51;;;;;;;;;;;;;;;;;;4978289;28;20272;-76
2023/12/06 19:31:18;;;;;;;;;;;;;;;;;;4978932;28;19926;-75
2023/12/06 19:33:47;;;;;;;;;;;;;;;;;;4979002;28;19933;-77
2023/12/06 19:36:14;;;;;;;;;;;;;;;;;;4979427;28;19933;-74
2023/12/06 19:38:41;;;;;;;;;;;;;;;;;;4979508;28;19968;-74
2023/12/06 19:41:09;;;;;;;;;;;;;;;;;;4980016;28;19926;-75
2023/12/06 19:43:36;;;;;;;;;;;;;;;;;;4979828;28;19930;-72
2023/12/06 19:46:04;;;;;;;;;;;;;;;;;;4979044;28;19933;-74
2023/12/06 19:48:31;;;;;;;;;;;;;;;;;;4979065;28;19962;-74
2023/12/06 19:50:58;;;;;;;;;;;;;;;;;;4979296;28;19926;-73
2023/12/06 19:53:25;;;;;;;;;;;;;;;;;;4978620;28;19926;-74
2023/12/06 19:55:52;;;;;;;;;;;;;;;;;;4978532;28;19926;-73
2023/12/06 19:58:19;;;;;;;;;;;;;;;;;;4976985;28;19948;-74
2023/12/06 20:00:46;;;;;;;;;;;;;;;;;;4978333;28;19926;-74
2023/12/06 20:03:13;;;;;;;;;;;;;;;;;;4977905;28;20388;-73
2023/12/06 20:05:40;;;;;;;;;;;;;;;;;;4978182;28;19926;-74
2023/12/06 20:08:07;;;;;;;;;;;;;;;;;;4978861;28;19933;-74
2023/12/06 20:10:34;;;;;;;;;;;;;;;;;;4978017;28;19926;-70
2023/12/06 20:13:01;;;;;;;;;;;;;;;;;;4977685;28;19934;-68
2023/12/06 20:15:27;;;;;;;;;;;;;;;;;;4977285;28;20281;-70
2023/12/06 20:17:54;;;;;;;;;;;;;;;;;;4977562;28;19926;-70
2023/12/06 20:20:21;;;;;;;;;;;;;;;;;;4977459;28;19933;-70
2023/12/06 20:22:48;;;;;;;;;;;;;;;;;;4977589;28;19926;-70
2023/12/06 20:25:15;;;;;;;;;;;;;;;;;;4977958;28;19926;-69
2023/12/06 20:27:42;;;;;;;;;;;;;;;;;;4977439;28;19937;-71
2023/12/06 20:30:09;;;;;;;;;;;;;;;;;;4977389;28;19933;-70
2023/12/06 20:32:37;;;;;;;;;;;;;;;;;;4977119;28;20391;-70
2023/12/06 20:35:03;;;;;;;;;;;;;;;;;;4976967;28;20414;-70
2023/12/06 20:37:30;;;;;;;;;;;;;;;;;;4977687;28;19926;-71
2023/12/06 20:39:57;;;;;;;;;;;;;;;;;;4977370;28;19930;-71
2023/12/06 20:42:24;;;;;;;;;;;;;;;;;;4977178;28;19926;-72
2023/12/06 20:44:51;;;;;;;;;;;;;;;;;;4977020;28;19926;-70
2023/12/06 20:47:18;;;;;;;;;;;;;;;;;;4977218;28;19951;-71
2023/12/06 20:49:47;;;;;;;;;;;;;;;;;;4976851;28;19926;-71
2023/12/06 20:52:14;;;;;;;;;;;;;;;;;;4976901;28;19926;-70
2023/12/06 20:54:41;;;;;;;;;;;;;;;;;;4976787;28;19926;-70
2023/12/06 20:57:08;;;;;;;;;;;;;;;;;;4977218;28;19949;-71
2023/12/06 20:59:35;;;;;;;;;;;;;;;;;;4976062;28;20396;-71
2023/12/06 21:02:02;;;;;;;;;;;;;;;;;;4976610;28;19926;-70
2023/12/06 21:04:29;;;;;;;;;;;;;;;;;;4976316;28;20392;-70
2023/12/06 21:06:56;;;;;;;;;;;;;;;;;;4976308;28;19926;-70
2023/12/06 21:09:23;;;;;;;;;;;;;;;;;;4975855;28;19926;-70
2023/12/06 21:11:50;;;;;;;;;;;;;;;;;;4975931;28;20280;-70
2023/12/06 21:14:17;;;;;;;;;;;;;;;;;;4976533;28;19926;-70
2023/12/06 21:16:43;;;;;;;;;;;;;;;;;;4976235;28;19926;-70
2023/12/06 21:19:10;;;;;;;;;;;;;;;;;;4976135;28;19930;-70
2023/12/06 21:21:37;;;;;;;;;;;;;;;;;;4976065;28;19933;-70
2023/12/06 21:24:05;;;;;;;;;;;;;;;;;;4975749;28;20391;-70
2023/12/06 21:26:31;;;;;;;;;;;;;;;;;;4976048;28;19933;-70
2023/12/06 21:28:59;;;;;;;;;;;;;;;;;;4975807;28;19930;-71
2023/12/06 21:31:26;;;;;;;;;;;;;;;;;;4975557;28;20281;-70
2023/12/06 21:33:53;;;;;;;;;;;;;;;;;;4975812;28;19926;-70
2023/12/06 21:36:20;;;;;;;;;;;;;;;;;;4975715;28;19927;-70
2023/12/06 21:38:47;;;;;;;;;;;;;;;;;;4975659;28;19926;-70
2023/12/06 21:41:14;;;;;;;;;;;;;;;;;;4975951;28;19926;-70
2023/12/06 21:43:40;;;;;;;;;;;;;;;;;;4975618;28;19926;-70
2023/12/06 21:46:07;;;;;;;;;;;;;;;;;;4975331;28;20391;-70
2023/12/06 21:48:34;;;;;;;;;;;;;;;;;;4975548;28;19926;-70
2023/12/06 21:51:01;;;;;;;;;;;;;;;;;;4975254;28;20020;-70
2023/12/06 21:53:28;;;;;;;;;;;;;;;;;;4975490;28;20096;-70
2023/12/06 21:55:55;;;;;;;;;;;;;;;;;;4975484;28;19926;-70
2023/12/06 21:58:22;;;;;;;;;;;;;;;;;;4975256;28;19934;-70
2023/12/06 22:00:50;;;;;;;;;;;;;;;;;;4975508;28;19962;-70
2023/12/06 22:03:17;;;;;;;;;;;;;;;;;;4977497;28;19926;-69
2023/12/06 22:05:44;;;;;;;;;;;;;;;;;;4979876;28;19926;-69
2023/12/06 22:08:11;;;;;;;;;;;;;;;;;;4979877;28;19926;-70
2023/12/06 22:10:38;;;;;;;;;;;;;;;;;;4975924;28;19934;-69
2023/12/06 22:13:04;;;;;;;;;;;;;;;;;;4975107;28;19926;-69
2023/12/06 22:15:31;;;;;;;;;;;;;;;;;;4975119;28;19949;-69
2023/12/06 22:17:58;;;;;;;;;;;;;;;;;;4974581;28;20443;-71
2023/12/06 22:20:25;;;;;;;;;;;;;;;;;;4974571;28;19933;-71
2023/12/06 22:22:52;;;;;;;;;;;;;;;;;;4974460;28;20372;-71
2023/12/06 22:25:19;;;;;;;;;;;;;;;;;;4975015;28;19930;-71
2023/12/06 22:27:46;;;;;;;;;;;;;;;;;;4974870;28;19930;-71
2023/12/06 22:30:13;;;;;;;;;;;;;;;;;;4974935;28;19926;-71
2023/12/06 22:32:40;;;;;;;;;;;;;;;;;;4974945;28;19926;-71
2023/12/06 22:35:06;;;;;;;;;;;;;;;;;;4974931;28;19926;-71
2023/12/06 22:37:33;;;;;;;;;;;;;;;;;;4974721;28;19933;-71
2023/12/06 22:40:00;;;;;;;;;;;;;;;;;;4975032;28;19949;-71
2023/12/06 22:42:27;;;;;;;;;;;;;;;;;;4974977;28;19926;-72
2023/12/06 22:44:54;;;;;;;;;;;;;;;;;;4975024;28;19926;-71
2023/12/06 22:47:21;;;;;;;;;;;;;;;;;;4974743;28;19926;-73
2023/12/06 22:49:48;;;;;;;;;;;;;;;;;;4975023;28;19949;-71
2023/12/06 22:52:15;;;;;;;;;;;;;;;;;;4974895;28;19933;-71
2023/12/06 22:54:42;;;;;;;;;;;;;;;;;;4974911;28;19949;-71
2023/12/06 22:57:09;;;;;;;;;;;;;;;;;;4974661;28;19927;-71
2023/12/06 22:59:35;;;;;;;;;;;;;;;;;;4974329;28;20292;-71
2023/12/06 23:02:02;;;;;;;;;;;;;;;;;;4974891;28;19933;-70
2023/12/06 23:04:29;;;;;;;;;;;;;;;;;;4974803;28;19930;-71
2023/12/06 23:06:56;;;;;;;;;;;;;;;;;;4974740;28;19926;-71
2023/12/06 23:09:23;;;;;;;;;;;;;;;;;;4974650;28;19934;-70
2023/12/06 23:11:50;;;;;;;;;;;;;;;;;;4974700;28;19926;-70
2023/12/06 23:14:17;;;;;;;;;;;;;;;;;;4974607;28;19926;-70
